sensor_id;sensor_type;location;lat;lon;timestamp;pressure;altitude;pressure_sealevel;temperature;humidity
6532;BME280;3299;42.004;24.868;2023-03-16T00:00:35;97029.56;;;9.32;70.58
6532;BME280;3299;42.004;24.868;2023-03-16T00:03:01;97105.81;;;9.85;70.60
6532;BME280;3299;42.004;24.868;2023-03-16T00:05:26;97104.44;;;9.72;70.96
6532;BME280;3299;42.004;24.868;2023-03-16T00:07:52;97098.84;;;9.67;71.04
6532;BME280;3299;42.004;24.868;2023-03-16T00:10:17;97109.75;;;9.79;70.80
6532;BME280;3299;42.004;24.868;2023-03-16T00:12:42;97083.22;;;9.68;70.69
6532;BME280;3299;42.004;24.868;2023-03-16T00:15:12;97066.16;;;9.47;71.95
6532;BME280;3299;42.004;24.868;2023-03-16T00:17:37;97026.56;;;9.27;71.76
6532;BME280;3299;42.004;24.868;2023-03-16T00:20:03;97021.91;;;9.21;72.01
6532;BME280;3299;42.004;24.868;2023-03-16T00:22:31;97076.13;;;9.51;72.37
6532;BME280;3299;42.004;24.868;2023-03-16T00:24:57;97055.47;;;9.51;71.19
6532;BME280;3299;42.004;24.868;2023-03-16T00:27:24;97021.47;;;9.37;71.39
6532;BME280;3299;42.004;24.868;2023-03-16T00:29:51;97066.09;;;9.76;71.11
6532;BME280;3299;42.004;24.868;2023-03-16T00:32:22;97059.81;;;9.60;70.36
6532;BME280;3299;42.004;24.868;2023-03-16T00:34:48;97014.47;;;9.28;70.65
6532;BME280;3299;42.004;24.868;2023-03-16T00:37:15;97021.84;;;9.42;70.00
6532;BME280;3299;42.004;24.868;2023-03-16T00:39:42;97094.41;;;9.87;70.22
6532;BME280;3299;42.004;24.868;2023-03-16T00:42:09;97115.53;;;10.02;70.23
6532;BME280;3299;42.004;24.868;2023-03-16T00:44:35;97068.53;;;9.68;70.32
6532;BME280;3299;42.004;24.868;2023-03-16T00:47:02;97097.25;;;9.75;70.22
6532;BME280;3299;42.004;24.868;2023-03-16T00:49:28;97039.66;;;9.35;69.81
6532;BME280;3299;42.004;24.868;2023-03-16T00:51:53;97050.53;;;9.39;69.71
6532;BME280;3299;42.004;24.868;2023-03-16T00:54:19;97085.66;;;9.69;68.91
6532;BME280;3299;42.004;24.868;2023-03-16T00:56:46;97103.66;;;9.80;69.25
6532;BME280;3299;42.004;24.868;2023-03-16T00:59:14;97107.19;;;9.89;69.07
6532;BME280;3299;42.004;24.868;2023-03-16T01:01:39;97126.78;;;9.91;69.60
6532;BME280;3299;42.004;24.868;2023-03-16T01:04:05;97124.84;;;9.84;69.87
6532;BME280;3299;42.004;24.868;2023-03-16T01:06:31;97072.94;;;9.48;70.58
6532;BME280;3299;42.004;24.868;2023-03-16T01:08:56;97116.66;;;9.69;71.18
6532;BME280;3299;42.004;24.868;2023-03-16T01:11:22;97045.16;;;9.21;70.53
6532;BME280;3299;42.004;24.868;2023-03-16T01:13:49;97113.81;;;9.63;70.63
6532;BME280;3299;42.004;24.868;2023-03-16T01:16:16;97057.38;;;9.19;71.04
6532;BME280;3299;42.004;24.868;2023-03-16T01:18:47;97117.66;;;9.48;71.61
6532;BME280;3299;42.004;24.868;2023-03-16T01:21:12;97124.81;;;9.65;71.60
6532;BME280;3299;42.004;24.868;2023-03-16T01:23:38;97122.91;;;9.67;72.12
6532;BME280;3299;42.004;24.868;2023-03-16T01:26:05;97128.94;;;9.77;72.44
6532;BME280;3299;42.004;24.868;2023-03-16T01:28:32;97070.78;;;9.43;72.47
6532;BME280;3299;42.004;24.868;2023-03-16T01:31:06;97042.03;;;9.27;72.85
6532;BME280;3299;42.004;24.868;2023-03-16T01:33:32;97038.81;;;9.35;72.72
6532;BME280;3299;42.004;24.868;2023-03-16T01:36:01;97068.91;;;9.45;72.55
6532;BME280;3299;42.004;24.868;2023-03-16T01:38:27;97106.31;;;9.69;71.74
6532;BME280;3299;42.004;24.868;2023-03-16T01:40:53;97037.59;;;9.29;71.97
6532;BME280;3299;42.004;24.868;2023-03-16T01:43:22;97043.47;;;9.41;71.29
6532;BME280;3299;42.004;24.868;2023-03-16T01:46:06;97134.84;;;9.98;70.90
6532;BME280;3299;42.004;24.868;2023-03-16T01:51:14;97084.59;;;9.72;71.12
6532;BME280;3299;42.004;24.868;2023-03-16T01:53:43;97141.59;;;9.80;71.16
6532;BME280;3299;42.004;24.868;2023-03-16T01:56:10;97063.50;;;9.28;71.86
6532;BME280;3299;42.004;24.868;2023-03-16T01:58:37;97056.66;;;9.08;71.73
6532;BME280;3299;42.004;24.868;2023-03-16T02:01:04;97040.53;;;8.95;71.22
6532;BME280;3299;42.004;24.868;2023-03-16T02:03:30;97124.84;;;9.45;70.86
6532;BME280;3299;42.004;24.868;2023-03-16T02:06:14;97122.91;;;9.37;70.79
6532;BME280;3299;42.004;24.868;2023-03-16T02:08:42;97153.44;;;9.32;72.05
6532;BME280;3299;42.004;24.868;2023-03-16T02:11:09;97052.72;;;8.83;71.48
6532;BME280;3299;42.004;24.868;2023-03-16T02:13:35;97132.13;;;9.30;71.89
6532;BME280;3299;42.004;24.868;2023-03-16T02:16:03;97099.84;;;9.15;72.11
6532;BME280;3299;42.004;24.868;2023-03-16T02:18:30;97056.84;;;8.95;72.48
6532;BME280;3299;42.004;24.868;2023-03-16T02:20:56;97152.53;;;9.63;73.07
6532;BME280;3299;42.004;24.868;2023-03-16T02:23:25;97122.28;;;9.45;72.44
6532;BME280;3299;42.004;24.868;2023-03-16T02:26:14;97153.34;;;9.63;72.50
6532;BME280;3299;42.004;24.868;2023-03-16T02:29:05;97160.56;;;9.69;72.19
6532;BME280;3299;42.004;24.868;2023-03-16T02:31:34;97107.88;;;9.42;72.25
6532;BME280;3299;42.004;24.868;2023-03-16T02:34:00;97121.88;;;9.49;72.65
6532;BME280;3299;42.004;24.868;2023-03-16T02:36:26;97073.97;;;9.26;73.10
6532;BME280;3299;42.004;24.868;2023-03-16T02:38:52;97127.50;;;9.63;72.05
6532;BME280;3299;42.004;24.868;2023-03-16T02:41:19;97080.66;;;9.38;71.78
6532;BME280;3299;42.004;24.868;2023-03-16T02:44:11;97177.38;;;9.94;71.84
6532;BME280;3299;42.004;24.868;2023-03-16T02:46:41;97079.72;;;9.39;72.21
6532;BME280;3299;42.004;24.868;2023-03-16T02:49:24;97072.25;;;9.36;72.13
6532;BME280;3299;42.004;24.868;2023-03-16T02:51:50;97163.78;;;9.92;72.92
6532;BME280;3299;42.004;24.868;2023-03-16T02:54:15;97108.22;;;9.58;73.08
6532;BME280;3299;42.004;24.868;2023-03-16T02:56:41;97164.88;;;9.89;73.24
6532;BME280;3299;42.004;24.868;2023-03-16T02:59:07;97129.66;;;9.58;74.19
6532;BME280;3299;42.004;24.868;2023-03-16T03:01:33;97185.38;;;9.91;74.42
6532;BME280;3299;42.004;24.868;2023-03-16T03:04:00;97091.94;;;9.37;74.64
6532;BME280;3299;42.004;24.868;2023-03-16T03:06:26;97154.19;;;9.73;74.26
6532;BME280;3299;42.004;24.868;2023-03-16T03:08:51;97102.38;;;9.36;71.85
6532;BME280;3299;42.004;24.868;2023-03-16T03:11:17;97138.25;;;9.59;71.80
6532;BME280;3299;42.004;24.868;2023-03-16T03:13:46;97210.53;;;9.89;72.25
6532;BME280;3299;42.004;24.868;2023-03-16T03:16:12;97145.59;;;9.63;71.15
6532;BME280;3299;42.004;24.868;2023-03-16T03:18:37;97160.84;;;9.67;71.66
6532;BME280;3299;42.004;24.868;2023-03-16T03:21:04;97162.59;;;9.66;72.58
6532;BME280;3299;42.004;24.868;2023-03-16T03:23:30;97143.72;;;9.66;72.93
6532;BME280;3299;42.004;24.868;2023-03-16T03:25:57;97121.47;;;9.53;73.21
6532;BME280;3299;42.004;24.868;2023-03-16T03:28:22;97154.06;;;9.75;72.97
6532;BME280;3299;42.004;24.868;2023-03-16T03:30:48;97122.59;;;9.51;72.53
6532;BME280;3299;42.004;24.868;2023-03-16T03:33:13;97178.44;;;9.82;72.34
6532;BME280;3299;42.004;24.868;2023-03-16T03:35:38;97182.72;;;9.72;72.82
6532;BME280;3299;42.004;24.868;2023-03-16T03:38:06;97202.34;;;9.84;72.56
6532;BME280;3299;42.004;24.868;2023-03-16T03:40:32;97196.72;;;9.69;72.65
6532;BME280;3299;42.004;24.868;2023-03-16T03:42:58;97192.78;;;9.66;72.56
6532;BME280;3299;42.004;24.868;2023-03-16T03:45:23;97175.03;;;9.52;72.41
6532;BME280;3299;42.004;24.868;2023-03-16T03:47:49;97229.09;;;9.73;72.25
6532;BME280;3299;42.004;24.868;2023-03-16T03:50:15;97140.06;;;9.18;72.21
6532;BME280;3299;42.004;24.868;2023-03-16T03:52:40;97240.50;;;9.71;72.46
6532;BME280;3299;42.004;24.868;2023-03-16T03:55:06;97186.38;;;9.40;72.87
6532;BME280;3299;42.004;24.868;2023-03-16T03:57:32;97132.38;;;9.07;72.59
6532;BME280;3299;42.004;24.868;2023-03-16T03:59:57;97223.44;;;9.59;72.52
6532;BME280;3299;42.004;24.868;2023-03-16T04:02:23;97202.44;;;9.43;72.14
6532;BME280;3299;42.004;24.868;2023-03-16T04:04:48;97238.66;;;9.62;72.34
6532;BME280;3299;42.004;24.868;2023-03-16T04:07:13;97181.91;;;9.21;72.76
6532;BME280;3299;42.004;24.868;2023-03-16T04:09:39;97149.25;;;9.11;72.15
6532;BME280;3299;42.004;24.868;2023-03-16T04:12:06;97241.44;;;9.70;71.91
6532;BME280;3299;42.004;24.868;2023-03-16T04:14:33;97240.63;;;9.69;71.25
6532;BME280;3299;42.004;24.868;2023-03-16T04:16:59;97156.50;;;9.17;71.18
6532;BME280;3299;42.004;24.868;2023-03-16T04:19:25;97205.34;;;9.29;71.98
6532;BME280;3299;42.004;24.868;2023-03-16T04:21:50;97201.81;;;9.30;71.40
6532;BME280;3299;42.004;24.868;2023-03-16T04:24:16;97242.16;;;9.52;71.12
6532;BME280;3299;42.004;24.868;2023-03-16T04:26:43;97161.41;;;8.99;71.28
6532;BME280;3299;42.004;24.868;2023-03-16T04:29:13;97257.25;;;9.56;71.40
6532;BME280;3299;42.004;24.868;2023-03-16T04:31:39;97169.16;;;8.99;71.28
6532;BME280;3299;42.004;24.868;2023-03-16T04:34:06;97269.38;;;9.56;71.32
6532;BME280;3299;42.004;24.868;2023-03-16T04:36:32;97253.09;;;9.44;71.25
6532;BME280;3299;42.004;24.868;2023-03-16T04:38:58;97202.50;;;9.12;71.01
6532;BME280;3299;42.004;24.868;2023-03-16T04:41:23;97230.81;;;9.23;70.96
6532;BME280;3299;42.004;24.868;2023-03-16T04:43:48;97206.84;;;9.11;71.07
6532;BME280;3299;42.004;24.868;2023-03-16T04:46:14;97205.28;;;8.99;71.06
6532;BME280;3299;42.004;24.868;2023-03-16T04:48:39;97188.50;;;8.94;70.97
6532;BME280;3299;42.004;24.868;2023-03-16T04:51:08;97215.72;;;8.98;70.79
6532;BME280;3299;42.004;24.868;2023-03-16T04:53:33;97281.50;;;9.44;70.83
6532;BME280;3299;42.004;24.868;2023-03-16T04:55:59;97245.41;;;9.13;70.61
6532;BME280;3299;42.004;24.868;2023-03-16T04:58:24;97207.19;;;8.86;70.62
6532;BME280;3299;42.004;24.868;2023-03-16T05:00:53;97285.84;;;9.23;71.10
6532;BME280;3299;42.004;24.868;2023-03-16T05:03:22;97286.41;;;9.27;70.89
6532;BME280;3299;42.004;24.868;2023-03-16T05:05:48;97211.97;;;8.70;71.41
6532;BME280;3299;42.004;24.868;2023-03-16T05:08:14;97258.53;;;8.89;71.47
6532;BME280;3299;42.004;24.868;2023-03-16T05:10:39;97282.22;;;8.94;71.73
6532;BME280;3299;42.004;24.868;2023-03-16T05:13:05;97213.28;;;8.54;71.54
6532;BME280;3299;42.004;24.868;2023-03-16T05:15:31;97282.22;;;8.94;71.48
6532;BME280;3299;42.004;24.868;2023-03-16T05:17:57;97311.81;;;9.11;71.06
6532;BME280;3299;42.004;24.868;2023-03-16T05:20:23;97317.66;;;9.13;71.09
6532;BME280;3299;42.004;24.868;2023-03-16T05:22:48;97285.47;;;8.96;70.86
6532;BME280;3299;42.004;24.868;2023-03-16T05:25:15;97247.38;;;8.57;71.10
6532;BME280;3299;42.004;24.868;2023-03-16T05:27:42;97336.34;;;9.05;71.49
6532;BME280;3299;42.004;24.868;2023-03-16T05:30:09;97342.09;;;9.09;71.53
6532;BME280;3299;42.004;24.868;2023-03-16T05:32:35;97321.00;;;8.93;71.62
6532;BME280;3299;42.004;24.868;2023-03-16T05:35:01;97301.00;;;8.74;71.33
6532;BME280;3299;42.004;24.868;2023-03-16T05:37:27;97317.19;;;8.76;71.60
6532;BME280;3299;42.004;24.868;2023-03-16T05:39:53;97317.41;;;8.84;71.08
6532;BME280;3299;42.004;24.868;2023-03-16T05:42:18;97276.56;;;8.47;70.97
6532;BME280;3299;42.004;24.868;2023-03-16T05:44:44;97355.59;;;9.01;70.60
6532;BME280;3299;42.004;24.868;2023-03-16T05:47:10;97364.09;;;9.13;69.95
6532;BME280;3299;42.004;24.868;2023-03-16T05:49:35;97275.59;;;8.59;69.83
6532;BME280;3299;42.004;24.868;2023-03-16T05:52:01;97308.72;;;8.85;69.26
6532;BME280;3299;42.004;24.868;2023-03-16T05:54:26;97289.78;;;8.64;69.07
6532;BME280;3299;42.004;24.868;2023-03-16T05:56:51;97375.59;;;9.20;68.88
6532;BME280;3299;42.004;24.868;2023-03-16T05:59:17;97309.47;;;8.76;68.29
6532;BME280;3299;42.004;24.868;2023-03-16T06:01:42;97286.50;;;8.51;68.49
6532;BME280;3299;42.004;24.868;2023-03-16T06:04:08;97307.13;;;8.51;68.82
6532;BME280;3299;42.004;24.868;2023-03-16T06:06:33;97393.34;;;9.02;68.86
6532;BME280;3299;42.004;24.868;2023-03-16T06:08:58;97384.16;;;9.09;68.12
6532;BME280;3299;42.004;24.868;2023-03-16T06:11:25;97318.72;;;8.68;67.71
6532;BME280;3299;42.004;24.868;2023-03-16T06:13:50;97323.88;;;8.68;67.56
6532;BME280;3299;42.004;24.868;2023-03-16T06:16:17;97344.84;;;8.74;67.58
6532;BME280;3299;42.004;24.868;2023-03-16T06:18:43;97352.56;;;8.74;67.54
6532;BME280;3299;42.004;24.868;2023-03-16T06:21:08;97401.75;;;9.04;67.07
6532;BME280;3299;42.004;24.868;2023-03-16T06:23:34;97338.63;;;8.66;66.98
6532;BME280;3299;42.004;24.868;2023-03-16T06:25:59;97421.78;;;9.23;67.08
6532;BME280;3299;42.004;24.868;2023-03-16T06:28:25;97358.19;;;8.90;66.32
6532;BME280;3299;42.004;24.868;2023-03-16T06:30:55;97417.19;;;9.26;65.85
6532;BME280;3299;42.004;24.868;2023-03-16T06:33:21;97436.19;;;9.36;65.20
6532;BME280;3299;42.004;24.868;2023-03-16T06:35:48;97436.09;;;9.27;65.38
6532;BME280;3299;42.004;24.868;2023-03-16T06:38:14;97439.06;;;9.22;65.57
6532;BME280;3299;42.004;24.868;2023-03-16T06:40:39;97428.28;;;9.17;66.01
6532;BME280;3299;42.004;24.868;2023-03-16T06:43:05;97375.31;;;8.80;65.51
6532;BME280;3299;42.004;24.868;2023-03-16T06:45:31;97389.97;;;8.91;65.36
6532;BME280;3299;42.004;24.868;2023-03-16T06:47:56;97368.19;;;8.73;65.02
6532;BME280;3299;42.004;24.868;2023-03-16T06:50:22;97417.25;;;9.04;64.84
6532;BME280;3299;42.004;24.868;2023-03-16T06:52:47;97426.16;;;9.11;64.82
6532;BME280;3299;42.004;24.868;2023-03-16T06:55:13;97427.56;;;9.04;64.50
6532;BME280;3299;42.004;24.868;2023-03-16T06:57:39;97444.44;;;9.19;64.63
6532;BME280;3299;42.004;24.868;2023-03-16T07:00:07;97393.59;;;8.88;63.74
6532;BME280;3299;42.004;24.868;2023-03-16T07:02:33;97492.41;;;9.44;63.71
6532;BME280;3299;42.004;24.868;2023-03-16T07:05:00;97435.78;;;9.09;64.03
6532;BME280;3299;42.004;24.868;2023-03-16T07:07:26;97394.53;;;8.87;63.93
6532;BME280;3299;42.004;24.868;2023-03-16T07:09:51;97412.81;;;8.95;63.20
6532;BME280;3299;42.004;24.868;2023-03-16T07:12:17;97411.97;;;8.95;62.99
6532;BME280;3299;42.004;24.868;2023-03-16T07:14:42;97491.81;;;9.40;62.67
6532;BME280;3299;42.004;24.868;2023-03-16T07:17:08;97508.69;;;9.44;62.95
6532;BME280;3299;42.004;24.868;2023-03-16T07:19:33;97451.50;;;9.17;62.23
6532;BME280;3299;42.004;24.868;2023-03-16T07:21:59;97464.41;;;9.17;62.23
6532;BME280;3299;42.004;24.868;2023-03-16T07:24:27;97423.34;;;8.92;62.05
6532;BME280;3299;42.004;24.868;2023-03-16T07:26:52;97436.25;;;8.92;62.03
6532;BME280;3299;42.004;24.868;2023-03-16T07:29:18;97451.25;;;9.09;61.50
6532;BME280;3299;42.004;24.868;2023-03-16T07:31:44;97522.22;;;9.37;61.43
6532;BME280;3299;42.004;24.868;2023-03-16T07:34:10;97509.66;;;9.32;61.29
6532;BME280;3299;42.004;24.868;2023-03-16T07:36:36;97467.47;;;9.00;61.19
6532;BME280;3299;42.004;24.868;2023-03-16T07:39:02;97493.72;;;9.16;61.56
6532;BME280;3299;42.004;24.868;2023-03-16T07:41:27;97526.06;;;9.42;61.02
6532;BME280;3299;42.004;24.868;2023-03-16T07:43:53;97491.16;;;9.16;61.13
6532;BME280;3299;42.004;24.868;2023-03-16T07:46:18;97518.91;;;9.35;60.50
6532;BME280;3299;42.004;24.868;2023-03-16T07:48:44;97551.75;;;9.55;60.21
6532;BME280;3299;42.004;24.868;2023-03-16T07:51:11;97546.13;;;9.50;59.81
6532;BME280;3299;42.004;24.868;2023-03-16T07:53:38;97541.09;;;9.48;59.76
6532;BME280;3299;42.004;24.868;2023-03-16T07:56:04;97517.28;;;9.34;59.88
6532;BME280;3299;42.004;24.868;2023-03-16T07:58:30;97534.03;;;9.39;60.08
6532;BME280;3299;42.004;24.868;2023-03-16T08:00:56;97560.44;;;9.53;59.78
6532;BME280;3299;42.004;24.868;2023-03-16T08:03:23;97533.94;;;9.30;59.66
6532;BME280;3299;42.004;24.868;2023-03-16T08:05:49;97503.47;;;9.02;60.22
6532;BME280;3299;42.004;24.868;2023-03-16T08:08:15;97467.47;;;8.78;60.15
6532;BME280;3299;42.004;24.868;2023-03-16T08:10:41;97566.91;;;9.26;60.27
6532;BME280;3299;42.004;24.868;2023-03-16T08:13:07;97540.88;;;9.18;60.44
6532;BME280;3299;42.004;24.868;2023-03-16T08:15:32;97527.03;;;9.08;60.59
6532;BME280;3299;42.004;24.868;2023-03-16T08:17:59;97522.34;;;9.02;60.85
6532;BME280;3299;42.004;24.868;2023-03-16T08:20:27;97466.28;;;8.71;61.00
6532;BME280;3299;42.004;24.868;2023-03-16T08:22:52;97454.06;;;8.62;61.04
6532;BME280;3299;42.004;24.868;2023-03-16T08:25:18;97544.63;;;9.25;61.06
6532;BME280;3299;42.004;24.868;2023-03-16T08:27:44;97550.25;;;9.30;61.05
6532;BME280;3299;42.004;24.868;2023-03-16T08:30:11;97541.81;;;9.28;61.11
6532;BME280;3299;42.004;24.868;2023-03-16T08:32:38;97540.97;;;9.39;60.91
6532;BME280;3299;42.004;24.868;2023-03-16T08:35:05;97558.00;;;9.52;60.64
6532;BME280;3299;42.004;24.868;2023-03-16T08:37:30;97548.72;;;9.50;60.49
6532;BME280;3299;42.004;24.868;2023-03-16T08:39:56;97462.66;;;8.85;60.51
6532;BME280;3299;42.004;24.868;2023-03-16T08:42:24;97558.22;;;9.38;60.49
6532;BME280;3299;42.004;24.868;2023-03-16T08:44:50;97511.78;;;9.05;60.53
6532;BME280;3299;42.004;24.868;2023-03-16T08:47:17;97538.97;;;9.20;60.70
6532;BME280;3299;42.004;24.868;2023-03-16T08:49:43;97471.66;;;8.79;60.57
6532;BME280;3299;42.004;24.868;2023-03-16T08:52:09;97498.63;;;8.97;61.04
6532;BME280;3299;42.004;24.868;2023-03-16T08:54:35;97484.34;;;8.82;60.90
6532;BME280;3299;42.004;24.868;2023-03-16T08:57:01;97543.66;;;9.15;60.93
6532;BME280;3299;42.004;24.868;2023-03-16T08:59:26;97481.78;;;8.82;61.12
6532;BME280;3299;42.004;24.868;2023-03-16T09:01:52;97588.97;;;9.41;61.34
6532;BME280;3299;42.004;24.868;2023-03-16T09:04:17;97513.19;;;9.09;60.79
6532;BME280;3299;42.004;24.868;2023-03-16T09:06:45;97590.13;;;9.37;60.72
6532;BME280;3299;42.004;24.868;2023-03-16T09:09:12;97576.88;;;9.42;60.54
6532;BME280;3299;42.004;24.868;2023-03-16T09:11:37;97541.44;;;9.22;60.47
6532;BME280;3299;42.004;24.868;2023-03-16T09:14:03;97575.34;;;9.50;59.88
6532;BME280;3299;42.004;24.868;2023-03-16T09:16:28;97562.91;;;9.44;59.68
6532;BME280;3299;42.004;24.868;2023-03-16T09:18:55;97557.41;;;9.38;59.49
6532;BME280;3299;42.004;24.868;2023-03-16T09:21:21;97590.50;;;9.55;59.39
6532;BME280;3299;42.004;24.868;2023-03-16T09:23:47;97531.72;;;9.14;59.26
6532;BME280;3299;42.004;24.868;2023-03-16T09:26:13;97505.22;;;9.01;59.06
6532;BME280;3299;42.004;24.868;2023-03-16T09:28:40;97507.69;;;9.03;58.82
6532;BME280;3299;42.004;24.868;2023-03-16T09:31:06;97582.50;;;9.57;58.38
6532;BME280;3299;42.004;24.868;2023-03-16T09:33:32;97554.00;;;9.37;58.12
6532;BME280;3299;42.004;24.868;2023-03-16T09:36:01;97512.69;;;9.15;58.03
6532;BME280;3299;42.004;24.868;2023-03-16T09:38:28;97508.75;;;9.11;57.81
6532;BME280;3299;42.004;24.868;2023-03-16T09:41:01;97512.38;;;9.20;57.98
6532;BME280;3299;42.004;24.868;2023-03-16T09:46:28;97605.59;;;9.81;57.72
6532;BME280;3299;42.004;24.868;2023-03-16T09:48:56;97590.81;;;9.72;58.13
6532;BME280;3299;42.004;24.868;2023-03-16T09:51:57;97601.84;;;9.74;57.54
6532;BME280;3299;42.004;24.868;2023-03-16T09:54:47;97611.44;;;9.94;57.23
6532;BME280;3299;42.004;24.868;2023-03-16T09:57:26;97621.53;;;9.97;57.54
6532;BME280;3299;42.004;24.868;2023-03-16T09:59:57;97597.59;;;9.84;57.35
6532;BME280;3299;42.004;24.868;2023-03-16T10:05:38;97577.66;;;9.86;57.30
6532;BME280;3299;42.004;24.868;2023-03-16T10:08:06;97618.25;;;10.17;56.79
6532;BME280;3299;42.004;24.868;2023-03-16T10:13:44;97590.31;;;10.11;56.55
6532;BME280;3299;42.004;24.868;2023-03-16T10:21:39;97621.69;;;10.38;56.20
6532;BME280;3299;42.004;24.868;2023-03-16T10:26:55;97591.31;;;10.30;56.01
6532;BME280;3299;42.004;24.868;2023-03-16T10:29:33;97521.13;;;9.92;55.59
6532;BME280;3299;42.004;24.868;2023-03-16T10:32:11;97564.16;;;10.25;54.91
6532;BME280;3299;42.004;24.868;2023-03-16T10:34:37;97596.75;;;10.48;54.56
6532;BME280;3299;42.004;24.868;2023-03-16T10:37:04;97605.91;;;10.52;54.58
6532;BME280;3299;42.004;24.868;2023-03-16T10:39:35;97610.06;;;10.64;54.40
6532;BME280;3299;42.004;24.868;2023-03-16T10:42:01;97608.44;;;10.63;54.38
6532;BME280;3299;42.004;24.868;2023-03-16T10:44:27;97544.88;;;10.29;54.00
6532;BME280;3299;42.004;24.868;2023-03-16T10:47:02;97615.09;;;10.76;53.78
6532;BME280;3299;42.004;24.868;2023-03-16T10:49:35;97610.59;;;10.78;54.24
6532;BME280;3299;42.004;24.868;2023-03-16T10:52:11;97513.66;;;10.21;53.96
6532;BME280;3299;42.004;24.868;2023-03-16T10:54:39;97517.38;;;10.28;53.87
6532;BME280;3299;42.004;24.868;2023-03-16T10:59:50;97545.97;;;10.47;53.54
6532;BME280;3299;42.004;24.868;2023-03-16T11:02:20;97607.38;;;10.86;53.42
6532;BME280;3299;42.004;24.868;2023-03-16T11:04:48;97512.91;;;10.30;53.25
6532;BME280;3299;42.004;24.868;2023-03-16T11:07:17;97600.75;;;10.93;52.95
6532;BME280;3299;42.004;24.868;2023-03-16T11:09:44;97542.94;;;10.62;53.04
6532;BME280;3299;42.004;24.868;2023-03-16T11:12:23;97595.13;;;10.88;52.89
6532;BME280;3299;42.004;24.868;2023-03-16T11:14:49;97585.03;;;10.85;52.84
6532;BME280;3299;42.004;24.868;2023-03-16T11:17:34;97589.94;;;10.88;52.82
6532;BME280;3299;42.004;24.868;2023-03-16T11:20:04;97598.59;;;10.98;52.66
6532;BME280;3299;42.004;24.868;2023-03-16T11:22:37;97546.53;;;10.71;52.89
6532;BME280;3299;42.004;24.868;2023-03-16T11:30:37;97511.81;;;10.73;51.96
6532;BME280;3299;42.004;24.868;2023-03-16T11:33:12;97518.16;;;10.90;51.57
6532;BME280;3299;42.004;24.868;2023-03-16T11:35:50;97528.19;;;11.04;51.25
6532;BME280;3299;42.004;24.868;2023-03-16T11:38:28;97594.09;;;11.50;51.78
6532;BME280;3299;42.004;24.868;2023-03-16T11:41:00;97529.09;;;11.23;51.55
6532;BME280;3299;42.004;24.868;2023-03-16T11:43:49;97592.69;;;11.67;50.46
6532;BME280;3299;42.004;24.868;2023-03-16T11:46:35;97587.31;;;11.59;50.28
6532;BME280;3299;42.004;24.868;2023-03-16T11:51:57;97599.75;;;11.65;50.31
6532;BME280;3299;42.004;24.868;2023-03-16T12:10:58;97606.50;;;11.26;50.75
6532;BME280;3299;42.004;24.868;2023-03-16T12:15:59;97622.63;;;11.30;50.97
6532;BME280;3299;42.004;24.868;2023-03-16T12:18:43;97575.31;;;10.98;50.79
6532;BME280;3299;42.004;24.868;2023-03-16T12:21:27;97604.88;;;11.25;51.08
6532;BME280;3299;42.004;24.868;2023-03-16T12:24:01;97535.44;;;10.80;50.83
6532;BME280;3299;42.004;24.868;2023-03-16T12:26:31;97538.16;;;10.78;51.13
6532;BME280;3299;42.004;24.868;2023-03-16T12:28:59;97538.97;;;10.79;51.16
6532;BME280;3299;42.004;24.868;2023-03-16T12:31:36;97629.75;;;11.37;50.98
6532;BME280;3299;42.004;24.868;2023-03-16T12:44:55;97639.28;;;11.16;50.83
6532;BME280;3299;42.004;24.868;2023-03-16T12:47:42;97635.56;;;11.09;51.00
6532;BME280;3299;42.004;24.868;2023-03-16T12:50:13;97550.41;;;10.56;51.11
6532;BME280;3299;42.004;24.868;2023-03-16T12:52:45;97569.88;;;10.60;51.16
6532;BME280;3299;42.004;24.868;2023-03-16T12:57:38;97625.22;;;10.89;51.21
6532;BME280;3299;42.004;24.868;2023-03-16T13:00:08;97564.75;;;10.49;51.44
6532;BME280;3299;42.004;24.868;2023-03-16T13:02:36;97630.84;;;10.94;51.35
6532;BME280;3299;42.004;24.868;2023-03-16T13:05:14;97663.94;;;11.11;51.48
6532;BME280;3299;42.004;24.868;2023-03-16T13:07:51;97660.72;;;11.18;51.37
6532;BME280;3299;42.004;24.868;2023-03-16T13:10:27;97559.47;;;10.50;51.17
6532;BME280;3299;42.004;24.868;2023-03-16T13:12:53;97618.91;;;10.82;51.64
6532;BME280;3299;42.004;24.868;2023-03-16T13:17:48;97611.22;;;10.71;51.57
6532;BME280;3299;42.004;24.868;2023-03-16T13:20:29;97677.50;;;11.03;51.77
6532;BME280;3299;42.004;24.868;2023-03-16T13:25:59;97678.38;;;10.93;52.26
6532;BME280;3299;42.004;24.868;2023-03-16T13:28:29;97618.91;;;10.61;52.28
6532;BME280;3299;42.004;24.868;2023-03-16T13:30:57;97652.59;;;10.71;52.26
6532;BME280;3299;42.004;24.868;2023-03-16T13:33:24;97590.53;;;10.39;52.68
6532;BME280;3299;42.004;24.868;2023-03-16T13:35:53;97667.84;;;10.85;53.19
6532;BME280;3299;42.004;24.868;2023-03-16T13:38:22;97657.09;;;10.69;53.66
6532;BME280;3299;42.004;24.868;2023-03-16T13:40:55;97677.03;;;10.78;53.99
6532;BME280;3299;42.004;24.868;2023-03-16T13:43:24;97675.31;;;10.67;54.22
6532;BME280;3299;42.004;24.868;2023-03-16T13:45:52;97661.13;;;10.62;54.42
6532;BME280;3299;42.004;24.868;2023-03-16T13:48:18;97649.75;;;10.53;54.51
6532;BME280;3299;42.004;24.868;2023-03-16T13:50:53;97643.22;;;10.38;54.25
6532;BME280;3299;42.004;24.868;2023-03-16T13:53:26;97607.34;;;10.13;54.12
6532;BME280;3299;42.004;24.868;2023-03-16T13:55:54;97685.47;;;10.59;53.78
6532;BME280;3299;42.004;24.868;2023-03-16T13:58:31;97663.50;;;10.43;53.62
6532;BME280;3299;42.004;24.868;2023-03-16T14:01:00;97616.97;;;10.00;53.60
6532;BME280;3299;42.004;24.868;2023-03-16T14:03:37;97681.41;;;10.35;53.78
6532;BME280;3299;42.004;24.868;2023-03-16T14:06:04;97725.34;;;10.57;54.09
6532;BME280;3299;42.004;24.868;2023-03-16T14:08:30;97709.84;;;10.46;53.32
6532;BME280;3299;42.004;24.868;2023-03-16T14:10:56;97732.72;;;10.61;53.53
6532;BME280;3299;42.004;24.868;2023-03-16T14:16:01;97736.00;;;10.63;53.23
6532;BME280;3299;42.004;24.868;2023-03-16T14:18:40;97679.91;;;10.21;53.09
6532;BME280;3299;42.004;24.868;2023-03-16T14:21:18;97734.28;;;10.53;53.20
6532;BME280;3299;42.004;24.868;2023-03-16T14:23:50;97742.38;;;10.59;53.08
6532;BME280;3299;42.004;24.868;2023-03-16T14:26:18;97638.44;;;10.01;52.70
6532;BME280;3299;42.004;24.868;2023-03-16T14:29:01;97665.47;;;10.08;53.41
6532;BME280;3299;42.004;24.868;2023-03-16T14:31:34;97745.75;;;10.60;53.63
6532;BME280;3299;42.004;24.868;2023-03-16T14:34:05;97689.31;;;10.22;53.26
6532;BME280;3299;42.004;24.868;2023-03-16T14:36:37;97735.94;;;10.43;53.54